Arcadia, Nebraska
Current Conditions -  °F | °C
As of 12:53 PM on Monday 22 Dec 2014 (Local Time) from KBBW Reporting Station
Scattered Clouds Scattered Clouds  
Wind Chill: 36°   Ceiling: Unl
Heat Index: 45°   Visibility: 10mi
Dew Point: 30°   Wind: 28mph
Humidity: 56%   Direction: 330°NNW
Pressure: 29.48"   Gusts: 41mph
Location:  41.42°N, 99.13°W
Report Text: KBBW 221853Z AUTO 33024G36KT 10SM SCT046 07/M01 A2948 RMK AO2 PK WND 34036/1847 SLP992 T00721011
Loading
Personal Weather Stations






























Interactive Weather Map New forecast layout! Learn more

10-Day Weather Forecast

Advertisements
Track Severe Weather on mobile